Fecha, hora, temperatura, viento dirección y velocidad, humedad y presión.

  • 23-01-2020 22:00:00 | 0.40°C | Este |10.00 km/h | 78.00% | 848.90 hPa
  • 23-01-2020 21:00:00 | 0.00°C | Sudeste |5.00 km/h | 80.00% | 848.60 hPa
  • 23-01-2020 20:00:00 | -0.50°C | Sudeste |3.00 km/h | 81.00% | 848.50 hPa
  • 23-01-2020 19:00:00 | 0.20°C | Oeste |3.00 km/h | 78.00% | 848.00 hPa
  • 23-01-2020 18:00:00 | 2.20°C | Sudeste |6.00 km/h | 71.00% | 847.60 hPa
  • 23-01-2020 17:00:00 | 3.10°C | Norte |2.00 km/h | 66.00% | 847.30 hPa
  • 23-01-2020 16:00:00 | 4.20°C | Este |6.00 km/h | 62.00% | 847.20 hPa
  • 23-01-2020 15:00:00 | 4.70°C | Noroeste |3.00 km/h | 64.00% | 847.80 hPa
  • 23-01-2020 14:00:00 | 4.60°C | Este |6.00 km/h | 68.00% | 848.40 hPa
  • 23-01-2020 13:00:00 | 4.20°C | Este |8.00 km/h | 65.00% | 848.70 hPa
  • 23-01-2020 12:00:00 | 1.80°C | Este |15.00 km/h | 77.00% | 849.00 hPa
  • 23-01-2020 11:00:00 | -0.60°C | Este |6.00 km/h | 81.00% | 849.10 hPa
  • 23-01-2020 10:00:00 | -2.70°C | Este |5.00 km/h | 86.00% | 848.80 hPa
  • 23-01-2020 08:00:00 | -4.80°C | Este |3.00 km/h | 89.00% | 848.30 hPa
  • 23-01-2020 08:00:00 | -4.80°C | Este |3.00 km/h | 89.00% | 848.30 hPa
  • 23-01-2020 07:00:00 | -5.20°C | Nordeste |3.00 km/h | 85.00% | 847.90 hPa
  • 23-01-2020 06:00:00 | -3.40°C | Sudeste |4.00 km/h | 90.00% | 848.10 hPa
  • 23-01-2020 05:00:00 | -2.30°C | Este |5.00 km/h | 90.00% | 848.20 hPa
  • 23-01-2020 04:00:00 | -1.10°C | Sudeste |9.00 km/h | 92.00% | 848.70 hPa
  • 23-01-2020 03:00:00 | -2.40°C | Este |5.00 km/h | 93.00% | 848.90 hPa
  • 23-01-2020 02:00:00 | -2.50°C | Este |12.00 km/h | 93.00% | 848.70 hPa
  • 23-01-2020 01:00:00 | -2.30°C | Este |11.00 km/h | 94.00% | 849.10 hPa
  • 23-01-2020 00:00:00 | -1.90°C | Sudeste |5.00 km/h | 94.00% | 849.00 hPa
  • 22-01-2020 23:00:00 | -1.90°C | Este |5.00 km/h | 95.00% | 849.10 hPa
    • diseño web asturias Información sobre el estado de las mareas, altura de la marejada, temperatura del agua y otros datos de Gijón en Asturias.

      Surf Gijón